createdAt,value
2019-05-25T00:01:24.967Z,4.47
2019-05-25T00:03:54.477Z,5.20
2019-05-25T00:06:23.972Z,4.90
2019-05-25T00:08:53.520Z,5.20
2019-05-25T00:11:23.145Z,5.07
2019-05-25T00:13:52.648Z,5.53
2019-05-25T00:16:22.187Z,5.70
2019-05-25T00:18:51.667Z,5.30
2019-05-25T00:21:21.178Z,4.80
2019-05-25T00:24:12.111Z,5.80
2019-05-25T00:26:35.266Z,5.37
2019-05-25T00:29:04.758Z,4.90
2019-05-25T00:31:34.260Z,4.90
2019-05-25T00:34:03.731Z,6.10
2019-05-25T00:36:33.198Z,5.75
2019-05-25T00:39:02.693Z,6.20
2019-05-25T00:41:32.166Z,5.80
2019-05-25T00:44:01.700Z,6.03
2019-05-25T00:46:31.142Z,6.23
2019-05-25T00:49:01.362Z,6.10
2019-05-25T00:51:30.839Z,5.80
2019-05-25T00:54:00.327Z,5.50
2019-05-25T00:56:29.816Z,6.03
2019-05-25T00:58:59.308Z,6.70
2019-05-25T01:01:28.803Z,6.60
2019-05-25T01:03:58.261Z,6.50
2019-05-25T01:06:27.763Z,6.75
2019-05-25T01:08:57.237Z,6.90
2019-05-25T01:11:26.842Z,6.83
2019-05-25T01:13:56.272Z,6.60
2019-05-25T01:16:27.000Z,6.78
2019-05-25T01:18:56.493Z,7.60
2019-05-25T01:21:25.983Z,6.97
2019-05-25T01:23:55.483Z,6.80
2019-05-25T01:26:25.004Z,6.60
2019-05-25T01:28:55.633Z,7.40
2019-05-25T01:31:25.113Z,6.87
2019-05-25T01:33:54.569Z,6.80
2019-05-25T01:36:24.062Z,6.97
2019-05-25T01:38:53.552Z,6.53
2019-05-25T01:41:23.033Z,6.73
2019-05-25T01:43:52.510Z,7.03
2019-05-25T01:46:21.995Z,7.50
2019-05-25T01:48:51.607Z,6.30
2019-05-25T01:51:40.430Z,5.28
2019-05-25T01:54:09.927Z,5.03
2019-05-25T01:56:39.414Z,5.00
2019-05-25T01:59:28.238Z,5.17
2019-05-25T02:01:57.731Z,5.22
2019-05-25T02:04:27.205Z,5.93
2019-05-25T02:06:56.712Z,5.85
2019-05-25T02:09:27.437Z,5.20
2019-05-25T02:11:56.904Z,5.17
2019-05-25T02:14:26.393Z,5.28
2019-05-25T02:16:55.890Z,5.50
2019-05-25T02:19:25.379Z,4.90
2019-05-25T02:21:54.868Z,5.63
2019-05-25T02:24:24.366Z,6.03
2019-05-25T02:26:53.897Z,5.33
2019-05-25T02:29:23.367Z,5.17
2019-05-25T02:31:52.838Z,5.17
2019-05-25T02:34:22.395Z,5.20
2019-05-25T02:36:51.877Z,5.83
2019-05-25T02:39:21.380Z,5.67
2019-05-25T02:41:50.846Z,6.30
2019-05-25T02:44:20.381Z,5.70
2019-05-25T02:46:49.877Z,5.70
2019-05-25T02:49:19.375Z,5.80
2019-05-25T02:51:48.853Z,5.83
2019-05-25T02:54:18.356Z,5.33
2019-05-25T02:56:47.853Z,6.35
2019-05-25T02:59:17.338Z,6.03
2019-05-25T03:01:46.826Z,6.17
2019-05-25T03:04:16.892Z,6.00
2019-05-25T03:06:46.658Z,6.30
2019-05-25T03:09:18.300Z,5.40
2019-05-25T03:11:49.393Z,5.90
2019-05-25T03:14:19.820Z,5.50
2019-05-25T03:16:49.321Z,5.20
2019-05-25T03:19:18.834Z,5.70
2019-05-25T03:24:56.097Z,6.27
2019-05-25T03:27:25.600Z,6.40
2019-05-25T03:29:55.060Z,6.23
2019-05-25T03:32:24.549Z,5.87
2019-05-25T03:34:54.040Z,5.80
2019-05-25T03:37:23.536Z,5.80
2019-05-25T03:39:53.037Z,5.90
2019-05-25T03:42:22.510Z,5.97
2019-05-25T03:44:52.056Z,6.27
2019-05-25T03:47:21.545Z,5.90
2019-05-25T03:49:51.028Z,6.23
2019-05-25T03:52:20.492Z,6.67
2019-05-25T03:54:49.978Z,6.07
2019-05-25T03:57:19.473Z,6.37
2019-05-25T03:59:48.950Z,6.00
2019-05-25T04:02:18.451Z,5.83
2019-05-25T04:04:47.928Z,6.00
2019-05-25T04:07:17.414Z,6.33
2019-05-25T04:09:46.894Z,5.70
2019-05-25T04:12:16.399Z,5.72
2019-05-25T04:14:45.893Z,5.40
2019-05-25T04:17:15.389Z,6.20
2019-05-25T04:19:44.878Z,6.00
2019-05-25T04:22:14.350Z,5.73
2019-05-25T04:24:43.849Z,5.50
2019-05-25T04:27:13.321Z,5.27
2019-05-25T04:29:44.089Z,4.60
2019-05-25T04:32:13.596Z,4.63
2019-05-25T04:34:43.074Z,4.58
2019-05-25T04:37:12.564Z,4.83
2019-05-25T04:39:42.061Z,5.03
2019-05-25T04:42:12.614Z,4.70
2019-05-25T04:44:42.103Z,4.50
2019-05-25T04:47:26.080Z,5.10
2019-05-25T04:49:42.800Z,4.80
2019-05-25T04:52:12.341Z,4.47
2019-05-25T04:54:41.835Z,4.70
2019-05-25T04:57:11.357Z,4.37
2019-05-25T04:59:40.841Z,4.47
2019-05-25T05:02:10.322Z,4.13
2019-05-25T05:04:39.828Z,4.67
2019-05-25T05:07:09.950Z,4.20
2019-05-25T05:09:39.437Z,4.70
2019-05-25T05:12:08.942Z,4.70
2019-05-25T05:14:38.433Z,4.40
2019-05-25T05:17:07.937Z,4.27
2019-05-25T05:19:38.238Z,3.90
2019-05-25T05:22:07.721Z,4.00
2019-05-25T05:24:37.234Z,3.65
2019-05-25T05:27:06.725Z,4.25
2019-05-25T05:29:55.547Z,4.23
2019-05-25T05:32:27.885Z,3.93
2019-05-25T05:34:56.325Z,4.70
2019-05-25T05:37:26.624Z,4.17
2019-05-25T05:39:57.302Z,4.40
2019-05-25T05:45:49.079Z,3.90
2019-05-25T05:48:21.190Z,4.13
2019-05-25T05:50:52.966Z,3.67
2019-05-25T05:53:23.966Z,4.00
2019-05-25T05:55:53.473Z,3.50
2019-05-25T05:58:22.998Z,3.50
2019-05-25T06:00:52.475Z,3.42
2019-05-25T06:03:21.934Z,3.60
2019-05-25T06:05:51.421Z,3.20
2019-05-25T06:08:20.907Z,3.00
2019-05-25T06:10:50.418Z,2.80
2019-05-25T06:13:19.936Z,3.20
2019-05-25T06:15:49.430Z,2.55
2019-05-25T06:18:18.924Z,3.12
2019-05-25T06:20:48.428Z,2.58
2019-05-25T06:23:17.984Z,3.03
2019-05-25T06:25:47.480Z,3.03
2019-05-25T06:28:22.098Z,2.90
2019-05-25T06:30:49.427Z,2.83
2019-05-25T06:33:18.940Z,2.87
2019-05-25T06:35:48.426Z,3.93
2019-05-25T06:38:17.942Z,3.12
2019-05-25T06:40:47.507Z,3.17
2019-05-25T06:43:16.999Z,3.30
2019-05-25T06:45:46.499Z,3.20
2019-05-25T06:48:15.989Z,2.87
2019-05-25T06:50:45.466Z,3.00
2019-05-25T06:53:14.958Z,3.20
2019-05-25T06:55:45.118Z,3.30
2019-05-25T06:58:14.663Z,3.12
2019-05-25T07:00:45.213Z,3.20
2019-05-25T07:03:14.684Z,3.20
2019-05-25T07:05:44.242Z,3.40
2019-05-25T07:08:13.781Z,3.35
2019-05-25T07:10:43.275Z,3.70
2019-05-25T07:13:13.064Z,3.65
2019-05-25T07:15:42.558Z,4.10
2019-05-25T07:18:12.034Z,3.70
2019-05-25T07:20:41.593Z,3.98
2019-05-25T07:23:11.073Z,3.90
2019-05-25T07:25:40.561Z,3.70
2019-05-25T07:28:10.078Z,3.77
2019-05-25T07:30:39.715Z,3.70
2019-05-25T07:33:09.268Z,3.70
2019-05-25T07:35:38.749Z,3.83
2019-05-25T07:38:08.241Z,4.00
2019-05-25T07:40:37.731Z,3.60
2019-05-25T07:43:07.239Z,4.40
2019-05-25T07:45:37.809Z,4.50
2019-05-25T07:48:07.287Z,3.87
2019-05-25T07:50:36.779Z,3.97
2019-05-25T07:53:06.264Z,4.13
2019-05-25T07:55:35.781Z,4.40
2019-05-25T07:58:16.700Z,4.00
2019-05-25T08:00:36.636Z,4.33
2019-05-25T08:03:06.131Z,4.00
2019-05-25T08:05:35.665Z,3.97
2019-05-25T08:08:05.634Z,4.03
2019-05-25T08:10:35.238Z,4.37
2019-05-25T08:13:04.743Z,3.90
2019-05-25T08:15:34.287Z,3.70
2019-05-25T08:18:03.780Z,3.50
2019-05-25T08:20:33.245Z,3.43
2019-05-25T08:23:02.732Z,4.00
2019-05-25T08:25:32.222Z,3.98
2019-05-25T08:28:01.713Z,3.80
2019-05-25T08:30:31.205Z,4.50
2019-05-25T08:33:00.685Z,4.48
2019-05-25T08:35:30.234Z,4.55
2019-05-25T08:37:59.725Z,3.98
2019-05-25T08:40:29.213Z,4.23
2019-05-25T08:42:58.691Z,4.62
2019-05-25T08:45:28.192Z,4.30
2019-05-25T08:47:57.701Z,4.75
2019-05-25T08:50:37.852Z,5.05
2019-05-25T08:52:58.492Z,4.90
2019-05-25T08:55:28.129Z,4.90
2019-05-25T08:57:57.653Z,5.10
2019-05-25T09:00:27.193Z,4.92
2019-05-25T09:02:56.661Z,4.35
2019-05-25T09:05:26.171Z,4.50
2019-05-25T09:07:55.687Z,4.83
2019-05-25T09:10:25.297Z,4.60
2019-05-25T09:12:55.374Z,4.33
2019-05-25T09:15:24.964Z,4.30
2019-05-25T09:17:54.465Z,4.00
2019-05-25T09:20:23.960Z,4.23
2019-05-25T09:22:53.439Z,3.95
2019-05-25T09:25:22.941Z,3.72
2019-05-25T09:27:52.409Z,4.20
2019-05-25T09:30:22.625Z,3.83
2019-05-25T09:32:52.188Z,3.77
2019-05-25T09:35:21.661Z,3.20
2019-05-25T09:37:51.132Z,3.30
2019-05-25T09:40:20.865Z,3.50
2019-05-25T09:42:50.506Z,3.60
2019-05-25T09:45:20.223Z,2.93
2019-05-25T09:47:49.705Z,2.60
2019-05-25T09:50:20.056Z,3.00
2019-05-25T09:52:49.553Z,3.12
2019-05-25T09:55:19.241Z,3.67
2019-05-25T09:57:48.734Z,3.53
2019-05-25T10:00:20.288Z,3.10
2019-05-25T10:02:49.881Z,3.23
2019-05-25T10:05:19.636Z,3.25
2019-05-25T10:07:49.132Z,3.10
2019-05-25T10:10:18.948Z,3.67
2019-05-25T10:12:48.429Z,2.90
2019-05-25T10:15:18.089Z,2.40
2019-05-25T10:17:47.566Z,3.47
2019-05-25T10:20:17.482Z,2.70
2019-05-25T10:22:46.972Z,2.60
2019-05-25T10:25:17.493Z,3.00
2019-05-25T10:28:06.331Z,3.10
2019-05-25T10:30:35.979Z,2.70
2019-05-25T10:33:05.553Z,2.90
2019-05-25T10:35:35.049Z,2.54
2019-05-25T10:38:23.877Z,2.75
2019-05-25T10:41:12.697Z,3.07
2019-05-25T10:43:42.213Z,3.42
2019-05-25T10:46:11.704Z,3.17
2019-05-25T10:48:41.184Z,3.50
2019-05-25T10:51:10.677Z,2.98
2019-05-25T10:53:40.158Z,3.17
2019-05-25T10:56:09.652Z,2.98
2019-05-25T10:58:39.121Z,3.33
2019-05-25T11:01:08.621Z,3.13
2019-05-25T11:03:38.107Z,2.80
2019-05-25T11:06:07.681Z,2.90
2019-05-25T11:08:37.166Z,2.60
2019-05-25T11:11:06.619Z,2.50
2019-05-25T11:13:36.110Z,2.60
2019-05-25T11:16:05.678Z,3.05
2019-05-25T11:18:35.235Z,3.05
2019-05-25T11:21:04.729Z,2.75
2019-05-25T11:23:34.223Z,2.77
2019-05-25T11:26:03.713Z,3.20
2019-05-25T11:28:33.204Z,3.00
2019-05-25T11:31:02.812Z,3.15
2019-05-25T11:33:32.317Z,3.00
2019-05-25T11:36:01.877Z,3.00
2019-05-25T11:38:31.358Z,3.50
2019-05-25T11:41:00.863Z,3.50
2019-05-25T11:43:49.690Z,3.08
2019-05-25T11:46:31.747Z,3.05
2019-05-25T11:49:01.270Z,3.75
2019-05-25T11:51:30.783Z,3.77
2019-05-25T11:54:00.278Z,3.90
2019-05-25T11:56:29.782Z,3.72
2019-05-25T11:58:59.269Z,3.05
2019-05-25T12:01:28.761Z,4.10
2019-05-25T12:03:58.251Z,3.50
2019-05-25T12:06:27.745Z,4.03
2019-05-25T12:08:57.237Z,3.70
2019-05-25T12:11:26.710Z,3.22
2019-05-25T12:13:56.223Z,3.30
2019-05-25T12:16:25.704Z,3.72
2019-05-25T12:18:55.209Z,3.50
2019-05-25T12:21:24.705Z,3.60
2019-05-25T12:23:54.211Z,4.03
2019-05-25T12:26:23.702Z,3.47
2019-05-25T12:28:53.187Z,3.20
2019-05-25T12:31:22.694Z,3.30
2019-05-25T12:33:52.175Z,3.30
2019-05-25T12:36:21.641Z,3.67
2019-05-25T12:38:51.142Z,3.60
2019-05-25T12:41:20.701Z,3.37
2019-05-25T12:43:50.252Z,3.83
2019-05-25T12:46:19.749Z,3.62
2019-05-25T12:48:49.245Z,3.60
2019-05-25T12:51:18.750Z,3.70
2019-05-25T12:53:48.251Z,3.45
2019-05-25T12:56:17.771Z,3.40
2019-05-25T12:58:50.016Z,3.53
2019-05-25T13:01:18.549Z,3.50
2019-05-25T13:03:48.058Z,3.30
2019-05-25T13:06:18.336Z,3.20
2019-05-25T13:08:48.000Z,3.10
2019-05-25T13:11:17.506Z,3.95
2019-05-25T13:13:47.024Z,4.30
2019-05-25T13:16:16.526Z,4.67
2019-05-25T13:18:46.007Z,4.47
2019-05-25T13:21:16.237Z,4.62
2019-05-25T13:23:45.728Z,4.55
2019-05-25T13:26:15.214Z,4.10
2019-05-25T13:28:44.710Z,4.65
2019-05-25T13:31:14.213Z,4.92
2019-05-25T13:33:44.505Z,4.50
2019-05-25T13:36:14.013Z,4.85
2019-05-25T13:38:43.500Z,5.33
2019-05-25T13:41:12.985Z,5.28
2019-05-25T13:43:42.491Z,5.83
2019-05-25T13:46:12.819Z,5.94
2019-05-25T13:48:42.394Z,6.25
2019-05-25T13:51:11.899Z,6.17
2019-05-25T13:53:41.388Z,7.77
2019-05-25T13:56:10.891Z,8.90
2019-05-25T13:58:41.119Z,9.50
2019-05-25T14:01:49.048Z,10.48
2019-05-25T14:04:18.573Z,10.28
2019-05-25T14:06:48.096Z,11.00
2019-05-25T14:09:17.575Z,9.40
2019-05-25T14:11:47.068Z,9.58
2019-05-25T14:14:16.573Z,11.23
2019-05-25T14:16:46.079Z,12.20
2019-05-25T14:19:15.589Z,14.15
2019-05-25T14:21:45.101Z,14.13
2019-05-25T14:24:14.606Z,14.20
2019-05-25T14:26:44.098Z,12.00
2019-05-25T14:29:13.588Z,9.28
2019-05-25T14:31:45.931Z,9.20
2019-05-25T14:34:14.310Z,7.37
2019-05-25T14:36:43.801Z,6.37
2019-05-25T14:39:13.729Z,6.50
2019-05-25T14:41:43.281Z,5.97
2019-05-25T14:44:12.773Z,6.13
2019-05-25T14:46:42.943Z,5.90
2019-05-25T14:49:12.611Z,5.57
2019-05-25T14:51:42.101Z,5.87
2019-05-25T14:54:11.611Z,5.05
2019-05-25T14:56:41.086Z,5.00
2019-05-25T14:59:10.587Z,5.80
2019-05-25T15:01:40.106Z,5.13
2019-05-25T15:04:10.260Z,5.78
2019-05-25T15:06:39.729Z,7.62
2019-05-25T15:09:09.305Z,5.00
2019-05-25T15:11:58.144Z,4.40
2019-05-25T15:14:46.990Z,4.03
2019-05-25T15:17:16.484Z,4.13
2019-05-25T15:19:45.960Z,4.73
2019-05-25T15:22:15.534Z,4.20
2019-05-25T15:24:45.004Z,5.00
2019-05-25T15:27:14.515Z,5.08
2019-05-25T15:29:44.004Z,4.87
2019-05-25T15:32:19.958Z,6.10
2019-05-25T15:34:46.558Z,4.70
2019-05-25T15:37:16.137Z,4.97
2019-05-25T15:39:45.635Z,4.20
2019-05-25T15:42:15.131Z,4.47
2019-05-25T15:44:44.615Z,4.83
2019-05-25T15:47:14.117Z,4.90
2019-05-25T15:49:43.596Z,5.70
2019-05-25T15:52:13.164Z,6.90
2019-05-25T15:54:42.719Z,6.63
2019-05-25T15:57:12.194Z,7.12
2019-05-25T15:59:41.706Z,9.10
2019-05-25T16:02:11.542Z,7.83
2019-05-25T16:04:41.024Z,9.57
2019-05-25T16:07:10.522Z,8.80
2019-05-25T16:09:40.012Z,7.58
2019-05-25T16:12:09.500Z,7.87
2019-05-25T16:14:39.015Z,7.47
2019-05-25T16:17:08.497Z,7.47
2019-05-25T16:19:38.003Z,6.70
2019-05-25T16:22:07.502Z,7.40
2019-05-25T16:24:36.985Z,7.47
2019-05-25T16:27:06.494Z,7.30
2019-05-25T16:29:35.969Z,8.13
2019-05-25T16:32:05.555Z,8.60
2019-05-25T16:34:35.031Z,8.50
2019-05-25T16:37:04.742Z,9.57
2019-05-25T16:39:34.246Z,9.70
2019-05-25T16:42:03.830Z,8.57
2019-05-25T16:44:33.393Z,29.77
2019-05-25T16:47:02.902Z,12.80
2019-05-25T16:49:32.411Z,11.37
2019-05-25T16:52:01.903Z,9.07
2019-05-25T16:54:31.476Z,10.55
2019-05-25T16:57:00.987Z,9.43
2019-05-25T16:59:30.481Z,9.50
2019-05-25T17:02:00.019Z,10.67
2019-05-25T17:04:29.504Z,12.53
2019-05-25T17:06:59.011Z,9.70
2019-05-25T17:09:28.509Z,9.37
2019-05-25T17:11:58.001Z,8.97
2019-05-25T17:14:27.512Z,9.67
2019-05-25T17:16:57.013Z,9.93
2019-05-25T17:19:26.533Z,10.13
2019-05-25T17:21:56.039Z,9.90
2019-05-25T17:24:25.514Z,8.77
2019-05-25T17:26:55.044Z,8.05
2019-05-25T17:29:24.534Z,7.97
2019-05-25T17:31:54.015Z,7.60
2019-05-25T17:34:23.513Z,8.67
2019-05-25T17:36:54.253Z,9.03
2019-05-25T17:39:23.743Z,8.73
2019-05-25T17:41:53.240Z,8.60
2019-05-25T17:44:22.798Z,8.07
2019-05-25T17:46:52.299Z,9.67
2019-05-25T17:49:22.918Z,8.45
2019-05-25T17:51:52.391Z,8.30
2019-05-25T17:54:21.893Z,9.37
2019-05-25T17:56:51.377Z,7.40
2019-05-25T17:59:20.879Z,7.90
2019-05-25T18:01:50.424Z,7.73
2019-05-25T18:04:19.919Z,7.67
2019-05-25T18:06:49.392Z,8.80
2019-05-25T18:09:18.900Z,9.33
2019-05-25T18:11:49.159Z,8.77
2019-05-25T18:14:19.407Z,9.75
2019-05-25T18:16:48.877Z,9.07
2019-05-25T18:19:18.380Z,8.47
2019-05-25T18:21:47.868Z,9.07
2019-05-25T18:24:17.455Z,9.30
2019-05-25T18:26:47.748Z,10.40
2019-05-25T18:29:17.226Z,9.77
2019-05-25T18:31:46.724Z,11.00
2019-05-25T18:34:21.944Z,9.63
2019-05-25T18:37:06.791Z,10.47
2019-05-25T18:39:55.639Z,11.03
2019-05-25T18:42:25.181Z,12.23
2019-05-25T18:44:54.666Z,11.80
2019-05-25T18:47:24.165Z,14.10
2019-05-25T18:49:53.859Z,11.53
2019-05-25T18:52:23.397Z,10.93
2019-05-25T18:54:52.867Z,10.10
2019-05-25T18:57:22.364Z,10.90
2019-05-25T18:59:51.877Z,11.43
2019-05-25T19:02:21.357Z,11.18
2019-05-25T19:04:59.541Z,12.27
2019-05-25T19:07:22.121Z,11.33
2019-05-25T19:09:51.655Z,11.77
2019-05-25T19:12:21.161Z,12.27
2019-05-25T19:14:50.658Z,12.23
2019-05-25T19:17:20.220Z,12.90
2019-05-25T19:19:49.713Z,12.07
2019-05-25T19:22:19.204Z,11.03
2019-05-25T19:24:48.714Z,11.93
2019-05-25T19:27:18.234Z,11.93
2019-05-25T19:29:47.717Z,12.00
2019-05-25T19:32:18.154Z,12.43
2019-05-25T19:34:59.006Z,12.30
2019-05-25T19:37:19.584Z,11.10
2019-05-25T19:39:49.183Z,11.53
2019-05-25T19:42:18.693Z,10.97
2019-05-25T19:44:48.193Z,11.60
2019-05-25T19:47:17.704Z,11.33
2019-05-25T19:49:47.179Z,11.60
2019-05-25T19:52:16.664Z,11.23
2019-05-25T19:54:46.160Z,14.55
2019-05-25T19:57:15.654Z,12.70
2019-05-25T19:59:45.143Z,11.40
2019-05-25T20:02:14.673Z,11.77
2019-05-25T20:04:44.162Z,11.00
2019-05-25T20:07:13.657Z,11.65
2019-05-25T20:09:43.159Z,12.53
2019-05-25T20:12:12.656Z,13.80
2019-05-25T20:14:42.168Z,14.10
2019-05-25T20:17:11.678Z,14.00
2019-05-25T20:19:41.196Z,15.20
2019-05-25T20:22:11.228Z,16.50
2019-05-25T20:24:40.778Z,16.97
2019-05-25T20:27:10.251Z,17.17
2019-05-25T20:29:39.745Z,16.97
2019-05-25T20:32:09.263Z,17.10
2019-05-25T20:34:39.575Z,17.48
2019-05-25T20:37:09.063Z,17.60
2019-05-25T20:39:38.567Z,16.97
2019-05-25T20:42:08.074Z,17.70
2019-05-25T20:44:37.566Z,18.30
2019-05-25T20:47:08.095Z,17.18
2019-05-25T20:49:37.586Z,17.30
2019-05-25T20:52:07.131Z,17.37
2019-05-25T20:54:36.646Z,17.73
2019-05-25T20:57:06.234Z,17.60
2019-05-25T20:59:36.478Z,16.20
2019-05-25T21:02:06.154Z,16.27
2019-05-25T21:04:35.656Z,15.37
2019-05-25T21:07:05.201Z,15.58
2019-05-25T21:09:34.722Z,15.13
2019-05-25T21:12:04.872Z,14.78
2019-05-25T21:14:34.351Z,15.07
2019-05-25T21:17:03.919Z,15.33
2019-05-25T21:19:33.413Z,15.03
2019-05-25T21:22:02.995Z,14.50
2019-05-25T21:24:32.499Z,14.60
2019-05-25T21:27:02.033Z,13.83
2019-05-25T21:29:31.505Z,14.87
2019-05-25T21:32:01.014Z,12.87
2019-05-25T21:34:30.591Z,13.72
2019-05-25T21:37:01.342Z,14.60
2019-05-25T21:39:30.861Z,14.43
2019-05-25T21:42:00.363Z,14.10
2019-05-25T21:44:29.870Z,13.80
2019-05-25T21:46:59.360Z,13.60
2019-05-25T21:49:30.128Z,14.47
2019-05-25T21:51:59.719Z,14.33
2019-05-25T21:54:29.220Z,13.60
2019-05-25T21:56:58.703Z,15.43
2019-05-25T21:59:28.217Z,16.50
2019-05-25T22:01:58.976Z,16.03
2019-05-25T22:04:28.449Z,15.93
2019-05-25T22:06:58.013Z,14.80
2019-05-25T22:09:27.519Z,15.60
2019-05-25T22:11:57.021Z,14.40
2019-05-25T22:14:27.752Z,14.73
2019-05-25T22:16:57.266Z,13.87
2019-05-25T22:19:26.783Z,14.20
2019-05-25T22:21:56.283Z,14.90
2019-05-25T22:24:57.542Z,14.37
2019-05-25T22:27:27.055Z,14.63
2019-05-25T22:29:56.548Z,15.17
2019-05-25T22:32:26.034Z,15.30
2019-05-25T22:34:55.844Z,15.00
2019-05-25T22:37:25.335Z,15.10
2019-05-25T22:39:54.841Z,14.70
2019-05-25T22:42:43.668Z,14.03
2019-05-25T22:45:13.512Z,15.30
2019-05-25T22:47:43.018Z,13.87
2019-05-25T22:50:13.046Z,14.57
2019-05-25T22:52:42.555Z,15.73
2019-05-25T22:55:12.381Z,15.07
2019-05-25T22:57:41.873Z,14.83
2019-05-25T23:00:11.748Z,14.13
2019-05-25T23:02:41.218Z,14.43
2019-05-25T23:05:11.125Z,14.73
2019-05-25T23:07:40.621Z,14.53
2019-05-25T23:10:10.637Z,14.90
2019-05-25T23:12:40.126Z,15.47
2019-05-25T23:15:10.059Z,14.80
2019-05-25T23:17:39.843Z,14.75
2019-05-25T23:20:09.834Z,15.53
2019-05-25T23:22:39.391Z,15.87
2019-05-25T23:25:09.133Z,16.32
2019-05-25T23:27:38.628Z,16.77
2019-05-25T23:30:08.959Z,16.77
2019-05-25T23:32:38.528Z,16.17
2019-05-25T23:35:08.342Z,16.63
2019-05-25T23:37:37.916Z,16.80
2019-05-25T23:40:08.811Z,16.60
2019-05-25T23:42:38.317Z,16.90
2019-05-25T23:45:08.260Z,15.88
2019-05-25T23:47:37.749Z,14.87
2019-05-25T23:50:08.162Z,14.67
2019-05-25T23:52:37.650Z,14.10
2019-05-25T23:55:10.497Z,13.70
2019-05-25T23:57:59.321Z,13.70
